sensor_id;sensor_type;location;lat;lon;timestamp;pressure;altitude;pressure_sealevel;temperature;humidity
19783;BME280;10051;40.294;-3.754;2023-12-20T00:00:56;95128.56;;;5.33;91.85
19783;BME280;10051;40.294;-3.754;2023-12-20T00:03:22;95108.59;;;5.39;91.05
19783;BME280;10051;40.294;-3.754;2023-12-20T00:05:49;95170.34;;;5.76;90.04
19783;BME280;10051;40.294;-3.754;2023-12-20T00:08:15;95137.81;;;5.48;90.69
19783;BME280;10051;40.294;-3.754;2023-12-20T00:10:41;95123.47;;;5.39;90.08
19783;BME280;10051;40.294;-3.754;2023-12-20T00:13:07;95198.06;;;5.89;90.61
19783;BME280;10051;40.294;-3.754;2023-12-20T00:15:33;95200.59;;;5.95;89.55
19783;BME280;10051;40.294;-3.754;2023-12-20T00:17:59;95159.41;;;5.67;88.38
19783;BME280;10051;40.294;-3.754;2023-12-20T00:20:26;95215.03;;;5.79;89.35
19783;BME280;10051;40.294;-3.754;2023-12-20T00:22:52;95172.91;;;5.15;91.36
19783;BME280;10051;40.294;-3.754;2023-12-20T00:25:17;95208.97;;;5.36;92.10
19783;BME280;10051;40.294;-3.754;2023-12-20T00:27:43;95223.72;;;5.61;91.21
19783;BME280;10051;40.294;-3.754;2023-12-20T00:30:09;95140.22;;;5.31;89.43
19783;BME280;10051;40.294;-3.754;2023-12-20T00:32:35;95185.16;;;5.63;89.06
19783;BME280;10051;40.294;-3.754;2023-12-20T00:35:01;95114.78;;;4.96;89.46
19783;BME280;10051;40.294;-3.754;2023-12-20T00:37:27;95216.53;;;5.26;91.25
19783;BME280;10051;40.294;-3.754;2023-12-20T00:39:52;95198.28;;;5.08;92.70
19783;BME280;10051;40.294;-3.754;2023-12-20T00:42:18;95185.09;;;4.84;94.37
19783;BME280;10051;40.294;-3.754;2023-12-20T00:44:44;95192.19;;;4.76;97.39
19783;BME280;10051;40.294;-3.754;2023-12-20T00:47:09;95131.88;;;4.36;99.14
19783;BME280;10051;40.294;-3.754;2023-12-20T00:49:35;95110.50;;;4.08;100.00
19783;BME280;10051;40.294;-3.754;2023-12-20T00:52:01;95054.09;;;3.77;100.00
19783;BME280;10051;40.294;-3.754;2023-12-20T00:54:26;95170.13;;;4.35;100.00
19783;BME280;10051;40.294;-3.754;2023-12-20T00:56:52;95112.59;;;3.93;100.00
19783;BME280;10051;40.294;-3.754;2023-12-20T00:59:17;95142.44;;;4.41;100.00
19783;BME280;10051;40.294;-3.754;2023-12-20T01:01:43;95098.16;;;4.22;99.45
19783;BME280;10051;40.294;-3.754;2023-12-20T01:04:09;95145.78;;;4.67;98.97
19783;BME280;10051;40.294;-3.754;2023-12-20T01:06:35;95149.88;;;4.37;100.00
19783;BME280;10051;40.294;-3.754;2023-12-20T01:09:00;95156.69;;;4.38;100.00
19783;BME280;10051;40.294;-3.754;2023-12-20T01:11:26;95068.09;;;4.01;99.88
19783;BME280;10051;40.294;-3.754;2023-12-20T01:13:51;95177.91;;;4.60;99.26
19783;BME280;10051;40.294;-3.754;2023-12-20T01:16:17;95109.66;;;4.33;98.68
19783;BME280;10051;40.294;-3.754;2023-12-20T01:18:42;95168.31;;;4.80;96.64
19783;BME280;10051;40.294;-3.754;2023-12-20T01:21:08;95180.59;;;5.10;95.32
19783;BME280;10051;40.294;-3.754;2023-12-20T01:23:33;95187.97;;;5.13;94.31
19783;BME280;10051;40.294;-3.754;2023-12-20T01:25:59;95134.13;;;4.69;94.92
19783;BME280;10051;40.294;-3.754;2023-12-20T01:28:28;95183.34;;;4.78;96.76
19783;BME280;10051;40.294;-3.754;2023-12-20T01:30:53;95186.22;;;4.69;98.26
19783;BME280;10051;40.294;-3.754;2023-12-20T01:33:19;95076.16;;;4.18;97.18
19783;BME280;10051;40.294;-3.754;2023-12-20T01:35:44;95127.19;;;4.44;96.52
19783;BME280;10051;40.294;-3.754;2023-12-20T01:38:10;95118.03;;;4.16;98.63
19783;BME280;10051;40.294;-3.754;2023-12-20T01:40:36;95112.09;;;4.09;99.33
19783;BME280;10051;40.294;-3.754;2023-12-20T01:43:04;95188.06;;;4.69;100.00
19783;BME280;10051;40.294;-3.754;2023-12-20T01:45:31;95123.25;;;4.35;99.02
19783;BME280;10051;40.294;-3.754;2023-12-20T01:47:58;95148.09;;;4.56;98.63
19783;BME280;10051;40.294;-3.754;2023-12-20T01:50:25;95081.59;;;3.91;98.96
19783;BME280;10051;40.294;-3.754;2023-12-20T01:52:52;95129.06;;;3.86;100.00
19783;BME280;10051;40.294;-3.754;2023-12-20T01:55:19;95155.91;;;4.12;100.00
19783;BME280;10051;40.294;-3.754;2023-12-20T01:57:46;95165.31;;;4.39;100.00
19783;BME280;10051;40.294;-3.754;2023-12-20T02:00:13;95102.25;;;4.11;97.85
19783;BME280;10051;40.294;-3.754;2023-12-20T02:02:40;95090.59;;;4.14;97.46
19783;BME280;10051;40.294;-3.754;2023-12-20T02:05:06;95170.59;;;4.69;96.99
19783;BME280;10051;40.294;-3.754;2023-12-20T02:07:32;95167.09;;;4.82;96.27
19783;BME280;10051;40.294;-3.754;2023-12-20T02:10:00;95175.84;;;4.88;95.88
19783;BME280;10051;40.294;-3.754;2023-12-20T02:12:26;95121.31;;;4.49;96.43
19783;BME280;10051;40.294;-3.754;2023-12-20T02:14:51;95095.63;;;4.34;95.41
19783;BME280;10051;40.294;-3.754;2023-12-20T02:17:17;95175.34;;;4.79;96.58
19783;BME280;10051;40.294;-3.754;2023-12-20T02:19:43;95111.91;;;4.48;95.97
19783;BME280;10051;40.294;-3.754;2023-12-20T02:22:12;95171.13;;;4.78;95.61
19783;BME280;10051;40.294;-3.754;2023-12-20T02:24:38;95187.00;;;4.95;95.13
19783;BME280;10051;40.294;-3.754;2023-12-20T02:27:06;95183.72;;;4.81;95.25
19783;BME280;10051;40.294;-3.754;2023-12-20T02:29:33;95103.03;;;4.12;96.81
19783;BME280;10051;40.294;-3.754;2023-12-20T02:31:59;95169.81;;;4.69;97.83
19783;BME280;10051;40.294;-3.754;2023-12-20T02:34:24;95151.06;;;4.60;98.15
19783;BME280;10051;40.294;-3.754;2023-12-20T02:36:50;95139.34;;;4.51;98.50
19783;BME280;10051;40.294;-3.754;2023-12-20T02:39:16;95144.75;;;4.49;99.38
19783;BME280;10051;40.294;-3.754;2023-12-20T02:41:42;95139.72;;;4.29;100.00
19783;BME280;10051;40.294;-3.754;2023-12-20T02:44:07;95144.94;;;4.29;100.00
19783;BME280;10051;40.294;-3.754;2023-12-20T02:46:33;95050.00;;;3.87;99.73
19783;BME280;10051;40.294;-3.754;2023-12-20T02:48:58;95156.72;;;4.75;99.04
19783;BME280;10051;40.294;-3.754;2023-12-20T02:51:24;95100.47;;;4.49;99.41
19783;BME280;10051;40.294;-3.754;2023-12-20T02:53:49;95114.72;;;4.46;100.00
19783;BME280;10051;40.294;-3.754;2023-12-20T02:56:15;95068.97;;;3.95;100.00
19783;BME280;10051;40.294;-3.754;2023-12-20T02:58:41;95027.00;;;3.84;100.00
19783;BME280;10051;40.294;-3.754;2023-12-20T03:01:06;95073.63;;;4.30;100.00
19783;BME280;10051;40.294;-3.754;2023-12-20T03:03:32;95148.66;;;4.58;100.00
19783;BME280;10051;40.294;-3.754;2023-12-20T03:05:57;95103.84;;;4.31;100.00
19783;BME280;10051;40.294;-3.754;2023-12-20T03:08:23;95155.56;;;4.53;100.00
19783;BME280;10051;40.294;-3.754;2023-12-20T03:10:48;95131.19;;;4.22;100.00
19783;BME280;10051;40.294;-3.754;2023-12-20T03:13:14;95177.00;;;4.29;100.00
19783;BME280;10051;40.294;-3.754;2023-12-20T03:15:40;95095.34;;;3.98;100.00
19783;BME280;10051;40.294;-3.754;2023-12-20T03:18:05;95137.53;;;4.51;100.00
19783;BME280;10051;40.294;-3.754;2023-12-20T03:20:31;95111.34;;;4.21;100.00
19783;BME280;10051;40.294;-3.754;2023-12-20T03:23:00;95147.19;;;4.44;100.00
19783;BME280;10051;40.294;-3.754;2023-12-20T03:25:25;95136.53;;;4.08;100.00
19783;BME280;10051;40.294;-3.754;2023-12-20T03:27:52;95153.66;;;4.41;100.00
19783;BME280;10051;40.294;-3.754;2023-12-20T03:30:18;95138.19;;;4.46;100.00
19783;BME280;10051;40.294;-3.754;2023-12-20T03:32:44;95149.09;;;4.55;100.00
19783;BME280;10051;40.294;-3.754;2023-12-20T03:35:09;95085.25;;;4.09;99.98
19783;BME280;10051;40.294;-3.754;2023-12-20T03:37:35;95128.66;;;4.59;100.00
19783;BME280;10051;40.294;-3.754;2023-12-20T03:40:01;95114.00;;;4.39;100.00
19783;BME280;10051;40.294;-3.754;2023-12-20T03:42:27;95101.50;;;4.04;100.00
19783;BME280;10051;40.294;-3.754;2023-12-20T03:44:52;95056.19;;;3.68;100.00
19783;BME280;10051;40.294;-3.754;2023-12-20T03:47:17;95097.03;;;4.11;100.00
19783;BME280;10051;40.294;-3.754;2023-12-20T03:49:43;95056.00;;;3.88;100.00
19783;BME280;10051;40.294;-3.754;2023-12-20T03:52:09;95086.84;;;4.10;100.00
19783;BME280;10051;40.294;-3.754;2023-12-20T03:54:37;95112.72;;;4.49;100.00
19783;BME280;10051;40.294;-3.754;2023-12-20T03:57:03;94986.38;;;3.83;100.00
19783;BME280;10051;40.294;-3.754;2023-12-20T03:59:30;95022.84;;;4.39;100.00
19783;BME280;10051;40.294;-3.754;2023-12-20T04:01:55;95107.69;;;5.03;100.00
19783;BME280;10051;40.294;-3.754;2023-12-20T04:04:21;95042.00;;;4.45;100.00
19783;BME280;10051;40.294;-3.754;2023-12-20T04:06:46;95064.50;;;4.39;100.00
19783;BME280;10051;40.294;-3.754;2023-12-20T04:09:12;95058.28;;;4.40;100.00
19783;BME280;10051;40.294;-3.754;2023-12-20T04:11:37;95036.69;;;4.40;99.73
19783;BME280;10051;40.294;-3.754;2023-12-20T04:14:03;95115.88;;;4.69;100.00
19783;BME280;10051;40.294;-3.754;2023-12-20T04:16:32;95086.06;;;4.65;100.00
19783;BME280;10051;40.294;-3.754;2023-12-20T04:18:58;95095.34;;;4.80;99.09
19783;BME280;10051;40.294;-3.754;2023-12-20T04:21:23;95016.34;;;4.11;99.05
19783;BME280;10051;40.294;-3.754;2023-12-20T04:23:49;95031.22;;;4.23;100.00
19783;BME280;10051;40.294;-3.754;2023-12-20T04:26:14;95063.22;;;4.49;100.00
19783;BME280;10051;40.294;-3.754;2023-12-20T04:28:40;95090.06;;;4.68;100.00
19783;BME280;10051;40.294;-3.754;2023-12-20T04:31:05;95086.66;;;4.49;100.00
19783;BME280;10051;40.294;-3.754;2023-12-20T04:33:31;95072.25;;;4.46;100.00
19783;BME280;10051;40.294;-3.754;2023-12-20T04:35:56;95078.03;;;4.48;100.00
19783;BME280;10051;40.294;-3.754;2023-12-20T04:38:22;95089.09;;;4.81;100.00
19783;BME280;10051;40.294;-3.754;2023-12-20T04:40:48;95032.69;;;4.56;100.00
19783;BME280;10051;40.294;-3.754;2023-12-20T04:43:14;95054.22;;;4.82;100.00
19783;BME280;10051;40.294;-3.754;2023-12-20T04:45:39;95075.38;;;5.04;99.90
19783;BME280;10051;40.294;-3.754;2023-12-20T04:48:05;95080.84;;;5.02;99.98
19783;BME280;10051;40.294;-3.754;2023-12-20T04:50:31;95061.59;;;4.85;100.00
19783;BME280;10051;40.294;-3.754;2023-12-20T04:52:56;95045.47;;;4.76;100.00
19783;BME280;10051;40.294;-3.754;2023-12-20T04:55:22;95067.78;;;4.72;99.91
19783;BME280;10051;40.294;-3.754;2023-12-20T04:57:47;95048.03;;;4.45;99.61
19783;BME280;10051;40.294;-3.754;2023-12-20T05:00:13;95051.78;;;4.31;99.34
19783;BME280;10051;40.294;-3.754;2023-12-20T05:02:40;95089.56;;;4.59;100.00
19783;BME280;10051;40.294;-3.754;2023-12-20T05:05:06;95045.22;;;4.28;100.00
19783;BME280;10051;40.294;-3.754;2023-12-20T05:07:32;95055.97;;;4.32;100.00
19783;BME280;10051;40.294;-3.754;2023-12-20T05:09:58;95077.19;;;4.36;100.00
19783;BME280;10051;40.294;-3.754;2023-12-20T05:12:24;95084.53;;;4.20;100.00
19783;BME280;10051;40.294;-3.754;2023-12-20T05:14:50;95092.59;;;4.19;100.00
19783;BME280;10051;40.294;-3.754;2023-12-20T05:17:16;95079.69;;;4.24;98.42
19783;BME280;10051;40.294;-3.754;2023-12-20T05:19:41;95139.94;;;4.53;98.71
19783;BME280;10051;40.294;-3.754;2023-12-20T05:22:07;95142.88;;;4.56;98.61
19783;BME280;10051;40.294;-3.754;2023-12-20T05:24:32;95116.84;;;4.56;98.06
19783;BME280;10051;40.294;-3.754;2023-12-20T05:26:58;95115.31;;;4.67;96.62
19783;BME280;10051;40.294;-3.754;2023-12-20T05:29:23;95140.94;;;4.52;97.54
19783;BME280;10051;40.294;-3.754;2023-12-20T05:31:49;95117.31;;;4.28;98.48
19783;BME280;10051;40.294;-3.754;2023-12-20T05:34:14;95042.16;;;3.69;99.57
19783;BME280;10051;40.294;-3.754;2023-12-20T05:36:45;95151.31;;;4.33;100.00
19783;BME280;10051;40.294;-3.754;2023-12-20T05:39:10;95149.69;;;4.39;100.00
19783;BME280;10051;40.294;-3.754;2023-12-20T05:41:37;95154.06;;;4.38;100.00
19783;BME280;10051;40.294;-3.754;2023-12-20T05:44:02;95089.19;;;3.93;100.00
19783;BME280;10051;40.294;-3.754;2023-12-20T05:46:28;95103.22;;;3.92;100.00
19783;BME280;10051;40.294;-3.754;2023-12-20T05:48:53;95067.00;;;3.90;100.00
19783;BME280;10051;40.294;-3.754;2023-12-20T05:51:19;95162.03;;;4.43;99.99
19783;BME280;10051;40.294;-3.754;2023-12-20T05:53:44;95110.34;;;4.03;100.00
19783;BME280;10051;40.294;-3.754;2023-12-20T05:56:10;95121.91;;;4.07;100.00
19783;BME280;10051;40.294;-3.754;2023-12-20T05:58:36;95158.84;;;4.41;100.00
19783;BME280;10051;40.294;-3.754;2023-12-20T06:01:05;95087.16;;;3.95;100.00
19783;BME280;10051;40.294;-3.754;2023-12-20T06:03:31;95148.00;;;4.44;100.00
19783;BME280;10051;40.294;-3.754;2023-12-20T06:05:56;95107.44;;;4.37;100.00
19783;BME280;10051;40.294;-3.754;2023-12-20T06:08:22;95130.34;;;4.65;100.00
19783;BME280;10051;40.294;-3.754;2023-12-20T06:10:48;95168.31;;;4.98;100.00
19783;BME280;10051;40.294;-3.754;2023-12-20T06:13:14;95181.63;;;4.90;100.00
19783;BME280;10051;40.294;-3.754;2023-12-20T06:15:40;95168.44;;;4.85;100.00
19783;BME280;10051;40.294;-3.754;2023-12-20T06:18:06;95146.53;;;4.74;100.00
19783;BME280;10051;40.294;-3.754;2023-12-20T06:20:32;95085.38;;;4.58;100.00
19783;BME280;10051;40.294;-3.754;2023-12-20T06:22:57;95100.09;;;4.83;100.00
19783;BME280;10051;40.294;-3.754;2023-12-20T06:25:23;95121.81;;;4.95;100.00
19783;BME280;10051;40.294;-3.754;2023-12-20T06:27:48;95104.88;;;4.86;100.00
19783;BME280;10051;40.294;-3.754;2023-12-20T06:30:15;95111.09;;;4.85;100.00
19783;BME280;10051;40.294;-3.754;2023-12-20T06:32:41;95110.81;;;4.74;100.00
19783;BME280;10051;40.294;-3.754;2023-12-20T06:35:08;95169.16;;;5.11;100.00
19783;BME280;10051;40.294;-3.754;2023-12-20T06:37:34;95169.72;;;5.13;100.00
19783;BME280;10051;40.294;-3.754;2023-12-20T06:40:00;95102.13;;;4.81;100.00
19783;BME280;10051;40.294;-3.754;2023-12-20T06:42:25;95139.47;;;5.12;100.00
19783;BME280;10051;40.294;-3.754;2023-12-20T06:44:51;95099.97;;;4.78;100.00
19783;BME280;10051;40.294;-3.754;2023-12-20T06:47:16;95091.41;;;4.89;100.00
19783;BME280;10051;40.294;-3.754;2023-12-20T06:49:42;95155.63;;;5.51;100.00
19783;BME280;10051;40.294;-3.754;2023-12-20T06:52:07;95159.25;;;5.50;100.00
19783;BME280;10051;40.294;-3.754;2023-12-20T06:54:33;95078.56;;;5.06;100.00
19783;BME280;10051;40.294;-3.754;2023-12-20T06:57:00;95095.38;;;5.10;100.00
19783;BME280;10051;40.294;-3.754;2023-12-20T06:59:25;95143.47;;;5.45;100.00
19783;BME280;10051;40.294;-3.754;2023-12-20T07:01:51;95164.78;;;5.42;100.00
19783;BME280;10051;40.294;-3.754;2023-12-20T07:04:17;95051.47;;;4.76;100.00
19783;BME280;10051;40.294;-3.754;2023-12-20T07:06:46;95093.28;;;5.00;100.00
19783;BME280;10051;40.294;-3.754;2023-12-20T07:09:11;95118.53;;;5.18;100.00
19783;BME280;10051;40.294;-3.754;2023-12-20T07:11:38;95107.03;;;5.08;100.00
19783;BME280;10051;40.294;-3.754;2023-12-20T07:14:04;95115.94;;;5.00;100.00
19783;BME280;10051;40.294;-3.754;2023-12-20T07:16:29;95106.38;;;4.94;100.00
19783;BME280;10051;40.294;-3.754;2023-12-20T07:18:55;95133.66;;;5.10;100.00
19783;BME280;10051;40.294;-3.754;2023-12-20T07:21:22;95160.06;;;5.32;100.00
19783;BME280;10051;40.294;-3.754;2023-12-20T07:23:48;95078.69;;;4.81;100.00
19783;BME280;10051;40.294;-3.754;2023-12-20T07:26:13;95118.13;;;5.03;100.00
19783;BME280;10051;40.294;-3.754;2023-12-20T07:28:39;95065.00;;;4.85;100.00
19783;BME280;10051;40.294;-3.754;2023-12-20T07:31:06;95153.25;;;5.61;100.00
19783;BME280;10051;40.294;-3.754;2023-12-20T07:33:31;95117.81;;;5.42;100.00
19783;BME280;10051;40.294;-3.754;2023-12-20T07:35:58;95143.13;;;5.53;100.00
19783;BME280;10051;40.294;-3.754;2023-12-20T07:38:24;95129.16;;;5.47;100.00
19783;BME280;10051;40.294;-3.754;2023-12-20T07:40:50;95094.53;;;5.28;100.00
19783;BME280;10051;40.294;-3.754;2023-12-20T07:43:15;95112.47;;;5.36;100.00
19783;BME280;10051;40.294;-3.754;2023-12-20T07:45:41;95108.88;;;5.49;100.00
19783;BME280;10051;40.294;-3.754;2023-12-20T07:48:07;95124.13;;;5.64;100.00
19783;BME280;10051;40.294;-3.754;2023-12-20T07:50:32;95110.28;;;5.64;100.00
19783;BME280;10051;40.294;-3.754;2023-12-20T07:52:58;95161.28;;;5.90;100.00
19783;BME280;10051;40.294;-3.754;2023-12-20T07:55:26;95147.84;;;5.75;100.00
19783;BME280;10051;40.294;-3.754;2023-12-20T07:57:51;95168.94;;;6.04;100.00
19783;BME280;10051;40.294;-3.754;2023-12-20T08:00:17;95131.97;;;5.76;100.00
19783;BME280;10051;40.294;-3.754;2023-12-20T08:02:43;95099.59;;;5.65;100.00
19783;BME280;10051;40.294;-3.754;2023-12-20T08:05:09;95152.03;;;6.06;100.00
19783;BME280;10051;40.294;-3.754;2023-12-20T08:07:35;95160.09;;;6.05;100.00
19783;BME280;10051;40.294;-3.754;2023-12-20T08:10:00;95117.81;;;5.84;100.00
19783;BME280;10051;40.294;-3.754;2023-12-20T08:12:26;95093.75;;;5.70;100.00
19783;BME280;10051;40.294;-3.754;2023-12-20T08:14:53;95033.53;;;5.29;100.00
19783;BME280;10051;40.294;-3.754;2023-12-20T08:17:19;95069.09;;;5.66;100.00
19783;BME280;10051;40.294;-3.754;2023-12-20T08:19:45;95152.50;;;6.27;100.00
19783;BME280;10051;40.294;-3.754;2023-12-20T08:22:11;95184.09;;;6.49;100.00
19783;BME280;10051;40.294;-3.754;2023-12-20T08:24:37;95123.88;;;6.08;100.00
19783;BME280;10051;40.294;-3.754;2023-12-20T08:27:03;95157.63;;;6.34;100.00
19783;BME280;10051;40.294;-3.754;2023-12-20T08:29:29;95176.38;;;6.54;100.00
19783;BME280;10051;40.294;-3.754;2023-12-20T08:31:55;95144.13;;;6.37;100.00
19783;BME280;10051;40.294;-3.754;2023-12-20T08:34:21;95077.78;;;6.02;100.00
19783;BME280;10051;40.294;-3.754;2023-12-20T08:36:47;95147.31;;;6.39;100.00
19783;BME280;10051;40.294;-3.754;2023-12-20T08:39:12;95125.84;;;6.37;100.00
19783;BME280;10051;40.294;-3.754;2023-12-20T08:41:38;95177.16;;;6.67;100.00
19783;BME280;10051;40.294;-3.754;2023-12-20T08:44:04;95187.63;;;6.55;100.00
19783;BME280;10051;40.294;-3.754;2023-12-20T08:46:29;95201.47;;;6.55;100.00
19783;BME280;10051;40.294;-3.754;2023-12-20T08:48:55;95197.28;;;6.31;100.00
19783;BME280;10051;40.294;-3.754;2023-12-20T08:51:21;95188.75;;;6.23;100.00
19783;BME280;10051;40.294;-3.754;2023-12-20T08:53:48;95192.47;;;6.16;100.00
19783;BME280;10051;40.294;-3.754;2023-12-20T08:56:14;95220.47;;;6.39;100.00
19783;BME280;10051;40.294;-3.754;2023-12-20T08:58:40;95209.44;;;6.49;100.00
19783;BME280;10051;40.294;-3.754;2023-12-20T09:01:06;95164.31;;;6.30;100.00
19783;BME280;10051;40.294;-3.754;2023-12-20T09:03:32;95210.13;;;6.56;100.00
19783;BME280;10051;40.294;-3.754;2023-12-20T09:05:58;95192.03;;;6.54;100.00
19783;BME280;10051;40.294;-3.754;2023-12-20T09:08:24;95156.72;;;6.40;100.00
19783;BME280;10051;40.294;-3.754;2023-12-20T09:10:49;95240.00;;;6.96;100.00
19783;BME280;10051;40.294;-3.754;2023-12-20T09:13:15;95239.06;;;7.14;100.00
19783;BME280;10051;40.294;-3.754;2023-12-20T09:15:41;95206.44;;;6.93;100.00
19783;BME280;10051;40.294;-3.754;2023-12-20T09:18:10;95192.81;;;6.91;100.00
19783;BME280;10051;40.294;-3.754;2023-12-20T09:20:35;95219.28;;;7.06;100.00
19783;BME280;10051;40.294;-3.754;2023-12-20T09:23:01;95226.44;;;7.11;100.00
19783;BME280;10051;40.294;-3.754;2023-12-20T09:25:26;95222.13;;;7.17;100.00
19783;BME280;10051;40.294;-3.754;2023-12-20T09:27:52;95251.41;;;7.42;100.00
19783;BME280;10051;40.294;-3.754;2023-12-20T09:30:18;95236.91;;;7.23;100.00
19783;BME280;10051;40.294;-3.754;2023-12-20T09:32:45;95234.75;;;7.20;100.00
19783;BME280;10051;40.294;-3.754;2023-12-20T09:35:10;95257.47;;;7.43;100.00
19783;BME280;10051;40.294;-3.754;2023-12-20T09:37:36;95226.88;;;7.32;100.00
19783;BME280;10051;40.294;-3.754;2023-12-20T09:40:02;95275.94;;;7.65;100.00
19783;BME280;10051;40.294;-3.754;2023-12-20T09:42:46;95304.66;;;7.60;100.00
19783;BME280;10051;40.294;-3.754;2023-12-20T09:45:14;95260.81;;;7.03;100.00
19783;BME280;10051;40.294;-3.754;2023-12-20T09:47:43;95259.78;;;6.80;100.00
19783;BME280;10051;40.294;-3.754;2023-12-20T09:50:09;95276.50;;;6.91;100.00
19783;BME280;10051;40.294;-3.754;2023-12-20T09:52:36;95298.66;;;7.12;100.00
19783;BME280;10051;40.294;-3.754;2023-12-20T09:55:03;95302.66;;;7.14;100.00
19783;BME280;10051;40.294;-3.754;2023-12-20T09:57:31;95249.13;;;6.81;100.00
19783;BME280;10051;40.294;-3.754;2023-12-20T09:59:57;95275.34;;;7.10;100.00
19783;BME280;10051;40.294;-3.754;2023-12-20T10:02:25;95241.59;;;6.97;100.00
19783;BME280;10051;40.294;-3.754;2023-12-20T10:04:55;95306.69;;;7.58;100.00
19783;BME280;10051;40.294;-3.754;2023-12-20T10:07:21;95245.63;;;7.40;100.00
19783;BME280;10051;40.294;-3.754;2023-12-20T10:09:47;95279.97;;;7.85;100.00
19783;BME280;10051;40.294;-3.754;2023-12-20T10:12:13;95221.38;;;7.74;100.00
19783;BME280;10051;40.294;-3.754;2023-12-20T10:14:39;95254.97;;;8.23;98.41
19783;BME280;10051;40.294;-3.754;2023-12-20T10:17:05;95313.38;;;8.82;97.67
19783;BME280;10051;40.294;-3.754;2023-12-20T10:19:32;95303.47;;;9.06;97.38
19783;BME280;10051;40.294;-3.754;2023-12-20T10:22:01;95299.97;;;9.17;97.49
19783;BME280;10051;40.294;-3.754;2023-12-20T10:24:29;95274.69;;;9.11;94.66
19783;BME280;10051;40.294;-3.754;2023-12-20T10:27:05;95315.59;;;9.46;93.84
19783;BME280;10051;40.294;-3.754;2023-12-20T10:29:35;95265.53;;;9.31;93.25
19783;BME280;10051;40.294;-3.754;2023-12-20T10:32:24;95309.75;;;9.84;91.35
19783;BME280;10051;40.294;-3.754;2023-12-20T10:34:51;95262.91;;;9.75;90.82
19783;BME280;10051;40.294;-3.754;2023-12-20T10:37:16;95249.81;;;9.80;86.14
19783;BME280;10051;40.294;-3.754;2023-12-20T10:39:43;95300.78;;;10.29;84.52
19783;BME280;10051;40.294;-3.754;2023-12-20T10:42:13;95299.44;;;10.54;84.22
19783;BME280;10051;40.294;-3.754;2023-12-20T10:44:39;95216.34;;;9.98;82.68
19783;BME280;10051;40.294;-3.754;2023-12-20T10:47:05;95299.63;;;10.75;82.36
19783;BME280;10051;40.294;-3.754;2023-12-20T10:49:31;95244.84;;;10.66;82.64
19783;BME280;10051;40.294;-3.754;2023-12-20T10:52:02;95308.34;;;11.18;77.07
19783;BME280;10051;40.294;-3.754;2023-12-20T10:54:29;95229.25;;;10.97;71.94
19783;BME280;10051;40.294;-3.754;2023-12-20T10:56:57;95222.53;;;11.27;68.36
19783;BME280;10051;40.294;-3.754;2023-12-20T10:59:23;95256.94;;;11.64;67.60
19783;BME280;10051;40.294;-3.754;2023-12-20T11:01:50;95223.75;;;11.63;65.85
19783;BME280;10051;40.294;-3.754;2023-12-20T11:04:25;95232.50;;;11.94;62.49
19783;BME280;10051;40.294;-3.754;2023-12-20T11:07:15;95203.75;;;11.77;63.01
19783;BME280;10051;40.294;-3.754;2023-12-20T11:09:48;95194.56;;;11.85;60.76
19783;BME280;10051;40.294;-3.754;2023-12-20T11:12:23;95252.38;;;12.33;59.28
19783;BME280;10051;40.294;-3.754;2023-12-20T11:14:53;95200.69;;;12.16;58.88
19783;BME280;10051;40.294;-3.754;2023-12-20T11:17:22;95184.88;;;12.27;58.11
19783;BME280;10051;40.294;-3.754;2023-12-20T11:22:30;95193.84;;;12.57;54.63
19783;BME280;10051;40.294;-3.754;2023-12-20T11:25:09;95220.72;;;12.95;51.46
19783;BME280;10051;40.294;-3.754;2023-12-20T11:28:08;95211.75;;;12.81;52.31
19783;BME280;10051;40.294;-3.754;2023-12-20T11:33:13;95123.94;;;12.44;46.35
19783;BME280;10051;40.294;-3.754;2023-12-20T11:35:39;95225.16;;;13.15;45.54
19783;BME280;10051;40.294;-3.754;2023-12-20T11:38:08;95197.72;;;13.06;45.01
19783;BME280;10051;40.294;-3.754;2023-12-20T11:40:34;95229.56;;;13.35;44.52
19783;BME280;10051;40.294;-3.754;2023-12-20T11:43:00;95204.47;;;13.33;44.97
19783;BME280;10051;40.294;-3.754;2023-12-20T11:45:25;95224.28;;;13.46;42.97
19783;BME280;10051;40.294;-3.754;2023-12-20T11:47:52;95224.53;;;13.49;43.64
19783;BME280;10051;40.294;-3.754;2023-12-20T11:50:22;95176.78;;;13.25;42.87
19783;BME280;10051;40.294;-3.754;2023-12-20T11:52:49;95153.28;;;13.23;42.26
19783;BME280;10051;40.294;-3.754;2023-12-20T11:55:15;95178.78;;;13.54;43.69
19783;BME280;10051;40.294;-3.754;2023-12-20T11:57:41;95161.34;;;13.53;44.14
19783;BME280;10051;40.294;-3.754;2023-12-20T12:00:07;95157.88;;;13.63;44.24
19783;BME280;10051;40.294;-3.754;2023-12-20T12:02:33;95118.53;;;13.56;45.12
19783;BME280;10051;40.294;-3.754;2023-12-20T12:05:02;95145.06;;;13.80;45.73
19783;BME280;10051;40.294;-3.754;2023-12-20T12:07:31;95128.19;;;13.76;44.75
19783;BME280;10051;40.294;-3.754;2023-12-20T12:09:57;95108.41;;;13.68;44.93
19783;BME280;10051;40.294;-3.754;2023-12-20T12:12:23;95172.63;;;14.14;44.86
19783;BME280;10051;40.294;-3.754;2023-12-20T12:14:50;95098.38;;;13.71;41.89
19783;BME280;10051;40.294;-3.754;2023-12-20T12:17:16;95147.25;;;14.13;42.01
19783;BME280;10051;40.294;-3.754;2023-12-20T12:19:42;95100.44;;;13.79;41.75
19783;BME280;10051;40.294;-3.754;2023-12-20T12:22:09;95153.56;;;14.17;41.86
19783;BME280;10051;40.294;-3.754;2023-12-20T12:24:40;95167.66;;;14.37;41.44
19783;BME280;10051;40.294;-3.754;2023-12-20T12:27:08;95146.56;;;14.32;41.40
19783;BME280;10051;40.294;-3.754;2023-12-20T12:29:35;95140.03;;;14.19;41.69
19783;BME280;10051;40.294;-3.754;2023-12-20T12:32:00;95143.50;;;14.19;40.78
19783;BME280;10051;40.294;-3.754;2023-12-20T12:34:29;95119.22;;;14.12;41.19
19783;BME280;10051;40.294;-3.754;2023-12-20T12:36:56;95165.44;;;14.49;40.31
19783;BME280;10051;40.294;-3.754;2023-12-20T12:39:23;95140.22;;;14.33;39.61
19783;BME280;10051;40.294;-3.754;2023-12-20T12:41:53;95100.09;;;14.20;37.89
19783;BME280;10051;40.294;-3.754;2023-12-20T12:44:19;95111.00;;;14.43;37.47
19783;BME280;10051;40.294;-3.754;2023-12-20T12:46:48;95161.09;;;14.64;38.21
19783;BME280;10051;40.294;-3.754;2023-12-20T12:49:16;95143.69;;;14.57;37.72
19783;BME280;10051;40.294;-3.754;2023-12-20T12:51:42;95130.03;;;14.45;37.35
19783;BME280;10051;40.294;-3.754;2023-12-20T12:54:09;95142.53;;;14.39;38.20